Time;durP1;ratioP1;P1;durP2;ratioP2;P2;SDS_P1;SDS_P2;PMS_P1;PMS_P2;Temp;Humidity;BMP_temperature;BMP_pressure;BME280_temperature;BME280_humidity;BME280_pressure;Samples;Min_cycle;Max_cycle;Signal;HPM_P1;HPM_P2
2022/08/01 00:00:20;;;;;;;3.30;2.78;;;;;;;13.66;100.00;93353.13;2126931;27;20396;-75
2022/08/01 00:01:21;;;;;;;3.80;2.63;;;;;;;13.70;100.00;93351.84;2126415;27;20027;-74
2022/08/01 00:02:22;;;;;;;4.32;2.83;;;;;;;13.74;100.00;93338.28;2127116;27;20023;-75
2022/08/01 00:03:23;;;;;;;3.63;3.08;;;;;;;13.76;100.00;93338.63;2126133;27;20034;-75
2022/08/01 00:04:24;;;;;;;3.60;2.60;;;;;;;13.71;100.00;93341.84;2126788;27;20045;-75
2022/08/01 00:05:25;;;;;;;5.07;2.60;;;;;;;13.68;100.00;93342.69;2126907;27;20030;-76
2022/08/01 00:06:26;;;;;;;3.53;2.70;;;;;;;13.59;100.00;93341.41;2126106;27;20449;-75
2022/08/01 00:07:29;;;;;;;3.53;2.50;;;;;;;13.69;100.00;93336.88;2126396;27;20038;-75
2022/08/01 00:08:30;;;;;;;2.67;2.47;;;;;;;13.68;100.00;93342.69;2126816;27;20092;-75
2022/08/01 00:09:31;;;;;;;3.13;2.65;;;;;;;13.69;100.00;93336.88;2126579;27;20449;-75
2022/08/01 00:10:31;;;;;;;3.60;2.95;;;;;;;13.60;100.00;93340.22;2126938;27;20472;-75
2022/08/01 00:11:32;;;;;;;2.95;2.65;;;;;;;13.63;100.00;93343.22;2126781;27;20031;-75
2022/08/01 00:12:33;;;;;;;3.28;2.70;;;;;;;13.60;100.00;93334.84;2126689;27;20031;-75
2022/08/01 00:13:35;;;;;;;3.80;2.90;;;;;;;13.67;100.00;93339.25;2127078;27;20113;-75
2022/08/01 00:14:36;;;;;;;6.00;2.95;;;;;;;13.62;100.00;93341.75;2126320;27;20050;-75
2022/08/01 00:15:37;;;;;;;4.47;2.53;;;;;;;13.53;100.00;93335.06;2126830;27;20889;-76
2022/08/01 00:16:38;;;;;;;3.35;2.60;;;;;;;13.50;100.00;93335.91;2127358;27;20140;-74
2022/08/01 00:17:40;;;;;;;5.45;2.97;;;;;;;13.46;100.00;93337.94;2126628;27;20031;-75
2022/08/01 00:18:41;;;;;;;3.17;2.72;;;;;;;13.49;100.00;93334.41;2126898;27;20031;-76
2022/08/01 00:19:42;;;;;;;3.38;2.60;;;;;;;13.49;100.00;93325.59;2126048;27;20016;-75
2022/08/01 00:20:43;;;;;;;3.78;2.72;;;;;;;13.34;100.00;93339.47;2126745;27;20046;-75
2022/08/01 00:21:44;;;;;;;4.13;2.83;;;;;;;13.30;100.00;93338.81;2126679;27;20106;-74
2022/08/01 00:22:45;;;;;;;3.75;3.08;;;;;;;13.39;100.00;93335.50;2126084;27;20027;-74
2022/08/01 00:23:46;;;;;;;3.42;3.13;;;;;;;13.23;100.00;93333.63;2127011;27;20356;-75
2022/08/01 00:24:47;;;;;;;6.68;2.55;;;;;;;13.25;100.00;93331.25;2126550;27;20389;-75
2022/08/01 00:25:49;;;;;;;4.07;3.00;;;;;;;13.24;100.00;93332.44;2116915;27;20038;-74
2022/08/01 00:26:49;;;;;;;3.25;2.55;;;;;;;13.27;100.00;93333.53;2117592;27;20031;-76
2022/08/01 00:27:50;;;;;;;3.83;2.90;;;;;;;13.30;100.00;93330.75;2126619;27;20023;-76
2022/08/01 00:28:51;;;;;;;4.63;2.83;;;;;;;13.29;100.00;93333.84;2117715;27;20028;-76
2022/08/01 00:29:53;;;;;;;3.17;2.70;;;;;;;13.29;100.00;93334.59;2117167;27;20107;-75
2022/08/01 00:30:53;;;;;;;4.22;2.70;;;;;;;13.22;100.00;93336.72;2127622;27;20039;-74
2022/08/01 00:31:54;;;;;;;3.17;2.40;;;;;;;13.16;100.00;93336.47;2126475;27;20031;-77
2022/08/01 00:32:55;;;;;;;3.92;2.72;;;;;;;13.19;100.00;93338.31;2126998;27;20023;-76
2022/08/01 00:33:56;;;;;;;5.93;2.80;;;;;;;13.14;100.00;93338.84;2127614;27;20456;-74
2022/08/01 00:34:57;;;;;;;3.00;2.70;;;;;;;13.23;100.00;93340.94;2126995;27;20142;-74
2022/08/01 00:35:58;;;;;;;3.50;3.20;;;;;;;13.16;100.00;93339.16;2126643;27;20103;-74
2022/08/01 00:37:00;;;;;;;3.55;3.10;;;;;;;13.17;100.00;93338.00;2127246;27;20030;-76
2022/08/01 00:38:01;;;;;;;3.67;3.33;;;;;;;13.19;100.00;93340.25;2127538;27;20176;-75
2022/08/01 00:39:02;;;;;;;5.45;2.80;;;;;;;13.17;100.00;93342.59;2126700;27;20441;-75
2022/08/01 00:40:04;;;;;;;3.67;2.78;;;;;;;13.19;100.00;93345.63;2126379;27;20042;-76
2022/08/01 00:41:05;;;;;;;2.95;2.75;;;;;;;13.08;100.00;93340.53;2126089;27;20034;-74
2022/08/01 00:42:07;;;;;;;6.65;2.80;;;;;;;12.92;100.00;93338.69;2126272;27;20106;-74
2022/08/01 00:43:09;;;;;;;5.28;3.10;;;;;;;12.99;100.00;93340.41;2125661;27;20090;-75
2022/08/01 00:44:10;;;;;;;3.45;2.90;;;;;;;12.99;100.00;93337.72;2118105;27;20098;-74
2022/08/01 00:45:11;;;;;;;5.20;3.00;;;;;;;13.04;100.00;93331.84;2118213;27;20461;-74
2022/08/01 00:46:12;;;;;;;3.17;2.63;;;;;;;13.04;100.00;93332.59;2125866;27;20450;-74
2022/08/01 00:47:13;;;;;;;4.35;3.00;;;;;;;12.99;100.00;93335.78;2127005;27;20079;-74
2022/08/01 00:48:14;;;;;;;6.65;3.33;;;;;;;12.94;100.00;93333.63;2126414;27;20061;-74
2022/08/01 00:49:15;;;;;;;3.88;3.10;;;;;;;12.99;100.00;93343.84;2117429;27;20395;-75
2022/08/01 00:50:16;;;;;;;3.20;2.83;;;;;;;13.03;100.00;93338.38;2117354;27;20034;-76
2022/08/01 00:51:17;;;;;;;3.97;2.90;;;;;;;12.95;100.00;93332.47;2127860;27;20105;-74
2022/08/01 00:52:18;;;;;;;3.85;3.00;;;;;;;12.85;100.00;93330.81;2125411;27;20554;-74
2022/08/01 00:53:19;;;;;;;3.17;2.88;;;;;;;12.90;100.00;93335.66;2126283;27;20039;-75
2022/08/01 00:54:20;;;;;;;3.70;3.33;;;;;;;12.85;100.00;93334.25;2126180;27;20061;-74
2022/08/01 00:55:21;;;;;;;3.60;3.15;;;;;;;12.83;100.00;93341.22;2125646;27;20130;-74
2022/08/01 00:56:25;;;;;;;5.25;3.45;;;;;;;12.77;100.00;93332.16;2126404;27;20165;-76
2022/08/01 00:57:26;;;;;;;3.53;3.22;;;;;;;12.89;100.00;93338.75;2126326;27;20019;-74
2022/08/01 00:58:30;;;;;;;4.20;2.70;;;;;;;12.95;100.00;93337.84;2127428;27;20102;-74
2022/08/01 00:59:31;;;;;;;6.43;3.25;;;;;;;12.88;100.00;93335.34;2126764;27;20139;-75
2022/08/01 01:00:35;;;;;;;3.28;2.95;;;;;;;12.90;100.00;93334.91;2127388;27;20027;-75
2022/08/01 01:01:36;;;;;;;4.30;3.22;;;;;;;12.82;100.00;93339.72;2126966;27;20025;-74
2022/08/01 01:02:37;;;;;;;5.40;2.72;;;;;;;12.72;100.00;93336.13;2126674;27;20472;-75
2022/08/01 01:03:38;;;;;;;3.42;3.10;;;;;;;12.81;100.00;93335.50;2125629;27;20114;-74
2022/08/01 01:04:39;;;;;;;4.38;2.97;;;;;;;12.82;100.00;93335.09;2117159;27;20056;-74
2022/08/01 01:06:40;;;;;;;3.72;2.85;;;;;;;12.63;100.00;93340.59;2117441;27;20106;-74
2022/08/01 01:08:13;;;;;;;5.25;3.10;;;;;;;12.59;100.00;93338.75;2095281;28;20032;-76
2022/08/01 01:09:23;;;;;;;4.55;2.65;;;;;;;12.66;100.00;93335.16;2096126;27;20040;-74
2022/08/01 01:10:46;;;;;;;2.72;2.47;;;;;;;12.74;100.00;93335.72;2125721;27;21113;-75
2022/08/01 01:11:52;;;;;;;5.43;2.88;;;;;;;12.73;100.00;93339.56;2126524;27;20063;-75
2022/08/01 01:13:06;;;;;;;3.05;2.75;;;;;;;12.53;100.00;93332.41;2126307;27;20080;-74
2022/08/01 01:14:23;;;;;;;7.63;2.90;;;;;;;12.56;100.00;93336.19;2125296;27;20072;-75
2022/08/01 01:15:29;;;;;;;3.38;3.08;;;;;;;12.52;100.00;93338.19;2126296;27;20039;-76
2022/08/01 01:16:33;;;;;;;4.60;3.08;;;;;;;12.59;100.00;93330.72;2126201;27;20421;-76
2022/08/01 01:17:51;;;;;;;4.75;3.38;;;;;;;12.60;100.00;93334.91;2125393;27;20114;-74
2022/08/01 01:18:57;;;;;;;3.15;2.85;;;;;;;12.57;100.00;93332.31;2125985;27;20523;-75
2022/08/01 01:20:02;;;;;;;3.53;2.58;;;;;;;12.53;100.00;93332.41;2117118;27;20027;-75
2022/08/01 01:21:18;;;;;;;5.80;2.88;;;;;;;12.58;100.00;93339.19;2118439;27;20027;-74
2022/08/01 01:22:41;;;;;;;3.30;2.83;;;;;;;12.54;100.00;93327.78;2125945;27;20391;-75
2022/08/01 01:24:04;;;;;;;4.07;3.20;;;;;;;12.55;100.00;93332.72;2126851;27;20341;-75
2022/08/01 01:25:18;;;;;;;3.65;3.05;;;;;;;12.49;100.00;93331.00;2126879;27;20035;-75
2022/08/01 01:26:31;;;;;;;3.50;3.20;;;;;;;12.50;100.00;93329.81;2116899;27;20027;-75
2022/08/01 01:27:51;;;;;;;4.43;3.03;;;;;;;12.55;100.00;93331.97;2119980;27;20031;-74
2022/08/01 01:29:05;;;;;;;;;;;;;;;12.55;100.00;93319.31;2126968;27;20452;-74
2022/08/01 01:30:06;;;;;;;5.40;3.17;;;;;;;12.54;100.00;93327.78;2126822;27;19998;-75
2022/08/01 01:31:10;;;;;;;7.60;2.85;;;;;;;12.42;100.00;93328.47;2128156;27;20018;-75
2022/08/01 01:32:22;;;;;;;3.88;3.10;;;;;;;12.44;100.00;93334.19;2128372;27;20110;-74
2022/08/01 01:33:28;;;;;;;5.75;2.85;;;;;;;12.44;100.00;93329.56;2126690;27;20102;-76
2022/08/01 01:34:31;;;;;;;3.30;3.00;;;;;;;12.44;100.00;93334.94;2129480;27;20022;-76
2022/08/01 01:35:38;;;;;;;4.82;2.78;;;;;;;12.47;100.00;93338.72;2126111;27;20031;-75
2022/08/01 01:36:41;;;;;;;3.47;3.17;;;;;;;12.45;100.00;93333.75;2125671;27;20045;-75
2022/08/01 01:37:45;;;;;;;3.40;3.10;;;;;;;12.50;100.00;93332.50;2126069;27;20037;-74
2022/08/01 01:38:48;;;;;;;3.40;3.15;;;;;;;12.50;100.00;93333.25;2125471;27;20034;-75
2022/08/01 01:39:51;;;;;;;3.55;3.20;;;;;;;12.47;100.00;93331.44;2126830;27;20035;-75
2022/08/01 01:40:55;;;;;;;4.22;2.92;;;;;;;12.43;100.00;93338.06;2126075;27;20075;-75
2022/08/01 01:41:58;;;;;;;2.97;2.70;;;;;;;12.32;100.00;93338.31;2124967;27;20023;-75
2022/08/01 01:42:59;;;;;;;4.70;3.08;;;;;;;12.37;100.00;93331.69;2116841;27;20035;-75
2022/08/01 01:44:03;;;;;;;4.93;3.13;;;;;;;12.26;100.00;93332.72;2108520;28;20024;-75
2022/08/01 01:45:05;;;;;;;4.30;2.75;;;;;;;12.31;100.00;93342.91;2117226;27;20066;-75
2022/08/01 01:46:08;;;;;;;3.83;3.28;;;;;;;12.33;100.00;93332.50;2126090;27;20027;-76
2022/08/01 01:47:12;;;;;;;5.55;3.08;;;;;;;12.25;100.00;93341.19;2125753;27;20105;-75
2022/08/01 01:48:17;;;;;;;4.93;3.03;;;;;;;12.20;100.00;93334.38;2126339;27;20486;-74
2022/08/01 01:49:26;;;;;;;3.35;2.90;;;;;;;12.32;100.00;93335.63;2125131;27;20520;-74
2022/08/01 01:50:28;;;;;;;10.15;3.28;;;;;;;12.40;100.00;93331.59;2125674;27;20056;-75
2022/08/01 01:51:31;;;;;;;3.28;2.97;;;;;;;12.29;100.00;93334.56;2116257;27;20707;-76
2022/08/01 01:52:33;;;;;;;5.05;3.30;;;;;;;12.35;100.00;93340.16;2109611;28;20071;-76
2022/08/01 01:53:36;;;;;;;3.50;3.15;;;;;;;12.28;100.00;93341.06;2112061;27;20039;-75
2022/08/01 01:54:43;;;;;;;4.07;3.33;;;;;;;12.40;100.00;93333.53;2121138;27;20105;-75
2022/08/01 01:55:47;;;;;;;4.20;2.70;;;;;;;12.41;100.00;93335.03;2125888;27;20117;-75
2022/08/01 01:56:50;;;;;;;3.38;2.90;;;;;;;12.30;100.00;93328.00;2126371;27;20034;-75
2022/08/01 01:57:53;;;;;;;5.30;3.10;;;;;;;12.27;100.00;93336.88;2126562;27;20051;-75
2022/08/01 01:58:57;;;;;;;5.70;3.17;;;;;;;12.31;100.00;93334.13;2116318;27;20633;-75
2022/08/01 02:00:00;;;;;;;5.20;3.20;;;;;;;12.34;100.00;93341.34;2117497;27;20042;-75
2022/08/01 02:01:02;;;;;;;3.13;2.83;;;;;;;12.30;100.00;93343.34;2124098;27;20099;-75
2022/08/01 02:02:05;;;;;;;9.10;3.28;;;;;;;12.22;100.00;93340.06;2125632;27;20031;-74
2022/08/01 02:03:09;;;;;;;3.40;2.88;;;;;;;12.28;100.00;93343.75;2125383;27;20023;-74
2022/08/01 02:04:11;;;;;;;3.50;3.20;;;;;;;12.20;100.00;93338.97;2127438;27;20109;-74
2022/08/01 02:05:13;;;;;;;4.18;3.65;;;;;;;12.18;100.00;93330.63;2127317;27;20029;-74
2022/08/01 02:06:16;;;;;;;5.50;3.22;;;;;;;12.17;100.00;93332.56;2126011;27;20109;-74
2022/08/01 02:07:21;;;;;;;5.97;3.25;;;;;;;12.18;100.00;93339.41;2126041;27;20115;-74
2022/08/01 02:08:23;;;;;;;3.72;3.15;;;;;;;12.23;100.00;93338.16;2125722;27;20036;-75
2022/08/01 02:09:27;;;;;;;4.53;3.25;;;;;;;12.26;100.00;93338.06;2126982;27;20027;-74
2022/08/01 02:10:30;;;;;;;3.55;2.95;;;;;;;12.35;100.00;93332.84;2126582;27;20030;-74
2022/08/01 02:11:32;;;;;;;3.50;3.17;;;;;;;12.36;100.00;93341.66;2125947;27;20023;-74
2022/08/01 02:14:40;;;;;;;;;;;;;;;12.30;100.00;93336.06;2142500;27;20872;-73
2022/08/01 02:15:42;;;;;;;5.28;3.20;;;;;;;12.30;100.00;93338.72;2141857;27;20375;-75
2022/08/01 02:16:47;;;;;;;6.00;3.00;;;;;;;12.32;100.00;93333.69;2141572;27;20053;-78
2022/08/01 02:17:50;;;;;;;4.00;3.40;;;;;;;12.25;100.00;93338.50;2132069;27;20034;-77
2022/08/01 02:18:51;;;;;;;4.13;3.80;;;;;;;12.18;100.00;93336.72;2132493;27;20364;-76
2022/08/01 02:19:53;;;;;;;7.65;3.40;;;;;;;12.25;100.00;93347.28;2142028;27;20024;-75
2022/08/01 02:20:58;;;;;;;4.53;3.15;;;;;;;12.28;100.00;93338.38;2141617;27;20034;-76
2022/08/01 02:22:19;;;;;;;4.40;4.00;;;;;;;12.31;100.00;93342.16;2130818;27;20069;-75
2022/08/01 02:23:23;;;;;;;4.65;3.92;;;;;;;12.27;100.00;93344.19;2134708;27;20089;-75
2022/08/01 02:24:36;;;;;;;5.53;3.13;;;;;;;12.27;100.00;93336.13;2140585;27;20033;-77
2022/08/01 02:25:48;;;;;;;4.32;3.58;;;;;;;12.18;100.00;93338.66;2141969;27;20372;-75
2022/08/01 02:26:52;;;;;;;7.45;3.50;;;;;;;12.14;100.00;93336.06;2139287;27;20026;-77
2022/08/01 02:28:15;;;;;;;6.32;3.50;;;;;;;12.13;100.00;93339.91;2141720;27;20029;-75
2022/08/01 02:29:27;;;;;;;4.53;3.58;;;;;;;12.25;100.00;93339.25;2141569;27;20030;-78
2022/08/01 02:30:33;;;;;;;5.97;3.83;;;;;;;12.28;100.00;93341.06;2139906;27;20069;-76
2022/08/01 02:31:39;;;;;;;5.53;3.63;;;;;;;12.26;100.00;93340.00;2142020;27;20026;-76
2022/08/01 02:32:51;;;;;;;3.90;3.50;;;;;;;12.15;100.00;93342.16;2141604;27;20478;-76
2022/08/01 02:34:01;;;;;;;5.25;3.88;;;;;;;12.13;100.00;93333.81;2140025;27;20053;-76
2022/08/01 02:35:07;;;;;;;3.85;3.55;;;;;;;12.07;100.00;93346.94;2141485;27;20352;-76
2022/08/01 02:36:11;;;;;;;5.50;3.80;;;;;;;12.04;100.00;93339.75;2142165;27;20109;-76
2022/08/01 02:37:13;;;;;;;4.40;3.55;;;;;;;12.02;100.00;93342.84;2140117;27;20038;-75
2022/08/01 02:38:14;;;;;;;3.88;3.58;;;;;;;12.13;100.00;93341.84;2141641;27;20045;-77
2022/08/01 02:39:19;;;;;;;4.65;3.28;;;;;;;12.12;100.00;93341.09;2140150;27;20029;-75
2022/08/01 02:40:20;;;;;;;5.68;3.80;;;;;;;12.14;100.00;93340.66;2139723;27;20035;-76
2022/08/01 02:41:23;;;;;;;3.75;3.40;;;;;;;12.18;100.00;93344.78;2133013;27;20087;-74
2022/08/01 02:42:27;;;;;;;3.92;3.47;;;;;;;12.13;100.00;93347.97;2131960;27;20027;-75
2022/08/01 02:43:30;;;;;;;4.43;3.90;;;;;;;12.07;100.00;93350.41;2141374;27;20466;-75
2022/08/01 02:44:37;;;;;;;7.53;3.95;;;;;;;12.05;100.00;93343.94;2142131;27;20044;-75
2022/08/01 02:45:45;;;;;;;3.80;3.50;;;;;;;12.00;100.00;93336.41;2141572;27;20565;-76
2022/08/01 02:47:02;;;;;;;5.35;4.50;;;;;;;11.97;100.00;93335.31;2140864;27;20079;-75
2022/08/01 02:48:09;;;;;;;5.32;3.72;;;;;;;12.01;100.00;93341.34;2140879;27;20027;-75
2022/08/01 02:49:13;;;;;;;4.63;3.25;;;;;;;11.92;100.00;93349.22;2139978;27;20026;-77
2022/08/01 02:50:16;;;;;;;5.00;4.10;;;;;;;11.96;100.00;93347.19;2141144;27;20388;-73
2022/08/01 02:51:18;;;;;;;6.60;4.30;;;;;;;12.00;100.00;93339.84;2140927;27;20034;-75
2022/08/01 02:52:22;;;;;;;3.70;3.40;;;;;;;11.71;100.00;93346.97;2139849;27;20038;-74
2022/08/01 02:53:27;;;;;;;7.75;4.30;;;;;;;11.56;100.00;93344.63;2141790;27;20034;-74
2022/08/01 02:54:33;;;;;;;5.35;3.95;;;;;;;11.72;100.00;93351.16;2141130;27;20029;-75
2022/08/01 02:55:35;;;;;;;4.00;3.53;;;;;;;11.83;100.00;93347.09;2141254;27;20542;-75
2022/08/01 02:56:38;;;;;;;7.30;4.07;;;;;;;11.84;100.00;93348.59;2141200;27;20030;-75
2022/08/01 02:57:41;;;;;;;4.18;3.78;;;;;;;11.76;100.00;93343.81;2142020;27;20636;-76
2022/08/01 02:58:44;;;;;;;4.93;4.05;;;;;;;11.82;100.00;93348.28;2141276;27;20026;-75
2022/08/01 02:59:47;;;;;;;4.40;3.78;;;;;;;11.84;100.00;93340.56;2141169;27;20113;-76
2022/08/01 03:00:48;;;;;;;5.40;3.67;;;;;;;11.77;100.00;93343.41;2131389;27;20019;-76
2022/08/01 03:01:51;;;;;;;4.80;4.22;;;;;;;11.62;100.00;93349.47;2132520;27;20027;-75
2022/08/01 03:02:56;;;;;;;4.28;3.88;;;;;;;11.71;100.00;93347.72;2141272;27;20033;-75
2022/08/01 03:03:58;;;;;;;4.70;3.72;;;;;;;11.73;100.00;93350.75;2138815;27;20083;-74
2022/08/01 03:05:02;;;;;;;4.38;3.97;;;;;;;11.75;100.00;93345.72;2141600;27;20033;-75
2022/08/01 03:06:03;;;;;;;5.28;3.97;;;;;;;11.78;100.00;93342.22;2138686;27;20035;-75
2022/08/01 03:07:07;;;;;;;3.67;3.33;;;;;;;11.82;100.00;93339.47;2139827;27;20146;-75
2022/08/01 03:08:10;;;;;;;4.53;4.13;;;;;;;11.82;100.00;93347.50;2141210;27;20109;-74
2022/08/01 03:09:12;;;;;;;5.07;4.07;;;;;;;11.82;100.00;93350.97;2139540;27;20075;-75
2022/08/01 03:10:14;;;;;;;8.35;4.53;;;;;;;11.83;100.00;93341.00;2141270;27;20080;-76
2022/08/01 03:11:15;;;;;;;4.60;4.03;;;;;;;11.73;100.00;93345.41;2139646;27;21161;-75
2022/08/01 03:12:22;;;;;;;4.82;4.05;;;;;;;11.67;100.00;93344.38;2142942;27;20490;-75
2022/08/01 03:13:27;;;;;;;7.45;4.40;;;;;;;11.70;100.00;93338.19;2131190;27;20064;-75
2022/08/01 03:14:30;;;;;;;4.57;3.97;;;;;;;11.69;100.00;93341.31;2134360;27;20496;-76
2022/08/01 03:15:34;;;;;;;4.35;3.95;;;;;;;11.78;100.00;93344.16;2141438;27;20018;-74
2022/08/01 03:16:39;;;;;;;4.47;4.07;;;;;;;11.66;100.00;93342.13;2139430;27;20026;-75
2022/08/01 03:17:42;;;;;;;4.97;3.90;;;;;;;11.62;100.00;93341.44;2141015;27;20463;-75
2022/08/01 03:18:45;;;;;;;4.50;4.10;;;;;;;11.65;100.00;93340.63;2140459;27;20042;-75
2022/08/01 03:19:49;;;;;;;4.82;4.32;;;;;;;11.65;100.00;93341.38;2141300;27;20026;-74
2022/08/01 03:20:54;;;;;;;5.03;3.80;;;;;;;11.72;100.00;93340.44;2140474;27;20030;-75
2022/08/01 03:21:58;;;;;;;5.97;4.22;;;;;;;11.74;100.00;93338.13;2139143;27;20034;-74
2022/08/01 03:23:03;;;;;;;5.22;4.00;;;;;;;11.65;100.00;93346.72;2142197;27;20038;-76
2022/08/01 03:24:05;;;;;;;5.25;4.18;;;;;;;11.41;100.00;93343.41;2139830;27;20051;-75
2022/08/01 03:25:08;;;;;;;4.43;4.03;;;;;;;11.41;100.00;93345.34;2141024;27;20030;-75
2022/08/01 03:26:10;;;;;;;5.60;4.30;;;;;;;11.46;100.00;93345.63;2134569;27;20484;-75
2022/08/01 03:27:13;;;;;;;7.50;4.18;;;;;;;11.57;100.00;93345.38;2135102;27;20367;-75
2022/08/01 03:28:16;;;;;;;5.60;4.68;;;;;;;11.60;100.00;93350.66;2135831;27;20030;-75
2022/08/01 03:29:24;;;;;;;4.97;4.50;;;;;;;11.62;100.00;93346.81;2133799;27;20034;-75
2022/08/01 03:30:27;;;;;;;6.85;4.50;;;;;;;11.41;100.00;93345.34;2134074;27;20111;-75
2022/08/01 03:31:30;;;;;;;4.38;3.80;;;;;;;11.45;100.00;93352.13;2135081;27;20105;-75
2022/08/01 03:32:31;;;;;;;5.15;4.68;;;;;;;11.56;100.00;93351.91;2134364;27;20022;-75
2022/08/01 03:33:32;;;;;;;5.38;4.32;;;;;;;11.53;100.00;93350.81;2134310;27;20057;-75
2022/08/01 03:34:33;;;;;;;6.95;4.85;;;;;;;11.39;100.00;93347.69;2135795;27;20137;-75
2022/08/01 03:35:39;;;;;;;5.03;4.43;;;;;;;11.28;100.00;93343.31;2135937;27;20083;-75
2022/08/01 03:36:48;;;;;;;7.25;4.53;;;;;;;11.20;100.00;93347.31;2133323;27;20058;-75
2022/08/01 03:37:53;;;;;;;5.85;4.25;;;;;;;11.33;100.00;93350.09;2135576;27;20097;-76
2022/08/01 03:38:59;;;;;;;5.47;4.60;;;;;;;11.43;100.00;93349.13;2134043;27;20039;-74
2022/08/01 03:40:24;;;;;;;5.57;4.10;;;;;;;11.47;100.00;93343.69;2135034;27;20387;-75
2022/08/01 03:41:29;;;;;;;5.32;4.30;;;;;;;11.47;100.00;93346.38;2134670;27;20122;-75
2022/08/01 03:42:37;;;;;;;7.38;4.30;;;;;;;11.46;100.00;93334.91;2133927;27;20055;-75
2022/08/01 03:43:43;;;;;;;6.40;4.63;;;;;;;11.43;100.00;93343.75;2125168;27;20057;-75
2022/08/01 03:44:52;;;;;;;5.03;4.38;;;;;;;11.45;100.00;93338.72;2127275;27;20481;-74
2022/08/01 03:45:56;;;;;;;6.40;4.65;;;;;;;11.32;100.00;93340.53;2134872;27;20023;-74
2022/08/01 03:47:04;;;;;;;5.55;3.78;;;;;;;11.27;100.00;93343.72;2135325;27;20039;-76
2022/08/01 03:48:17;;;;;;;4.93;4.40;;;;;;;11.31;100.00;93339.78;2136757;27;20027;-75
2022/08/01 03:49:23;;;;;;;4.07;3.65;;;;;;;11.36;100.00;93346.56;2134064;27;20432;-75
2022/08/01 03:50:24;;;;;;;6.30;4.53;;;;;;;11.30;100.00;93340.22;2133141;27;20018;-74
2022/08/01 03:51:27;;;;;;;5.22;4.05;;;;;;;11.32;100.00;93340.53;2133130;27;20025;-75
2022/08/01 03:52:30;;;;;;;5.00;4.25;;;;;;;11.32;100.00;93335.19;2134394;27;20117;-76
2022/08/01 03:53:33;;;;;;;7.28;4.72;;;;;;;11.35;100.00;93332.44;2134942;27;20109;-75
2022/08/01 03:54:38;;;;;;;7.43;4.68;;;;;;;11.38;100.00;93336.22;2133616;27;20022;-74
2022/08/01 03:55:42;;;;;;;6.78;4.53;;;;;;;11.33;100.00;93331.38;2134637;27;20080;-75
2022/08/01 03:56:45;;;;;;;5.50;3.90;;;;;;;11.32;100.00;93333.25;2134151;27;20169;-76
2022/08/01 03:57:48;;;;;;;4.68;3.88;;;;;;;11.35;100.00;93335.13;2135086;27;20026;-76
2022/08/01 03:58:49;;;;;;;8.68;4.57;;;;;;;11.38;100.00;93330.13;2136094;27;20405;-75
2022/08/01 03:59:51;;;;;;;5.07;4.53;;;;;;;11.37;100.00;93333.94;2132915;27;20110;-74
2022/08/01 04:00:53;;;;;;;4.57;3.78;;;;;;;11.34;100.00;93333.63;2135682;27;20041;-75
2022/08/01 04:01:55;;;;;;;5.57;4.38;;;;;;;11.23;100.00;93335.00;2134489;27;20030;-76
2022/08/01 04:02:56;;;;;;;5.80;4.70;;;;;;;11.29;100.00;93333.38;2133403;27;20042;-76
2022/08/01 04:03:59;;;;;;;5.30;4.13;;;;;;;11.21;100.00;93332.75;2136573;27;20037;-77
2022/08/01 04:05:01;;;;;;;5.88;4.72;;;;;;;11.16;100.00;93333.25;2133491;27;20870;-76
2022/08/01 04:06:08;;;;;;;4.72;4.32;;;;;;;11.22;100.00;93328.16;2135121;27;20033;-76
2022/08/01 04:07:31;;;;;;;6.90;4.75;;;;;;;11.24;100.00;93339.22;2134375;27;20062;-76
2022/08/01 04:08:37;;;;;;;5.07;4.38;;;;;;;11.23;100.00;93332.31;2133356;27;20065;-75
2022/08/01 04:09:38;;;;;;;6.00;4.43;;;;;;;11.16;100.00;93327.88;2134737;27;20031;-75
2022/08/01 04:10:39;;;;;;;5.38;3.92;;;;;;;11.19;100.00;93320.94;2126590;27;20027;-75
2022/08/01 04:11:40;;;;;;;5.00;4.50;;;;;;;11.16;100.00;93321.78;2115983;27;20045;-76
2022/08/01 04:12:42;;;;;;;6.72;4.22;;;;;;;11.15;100.00;93333.63;2126542;27;20031;-75
2022/08/01 04:13:43;;;;;;;6.78;4.75;;;;;;;11.18;100.00;93330.16;2134596;27;20039;-75
2022/08/01 04:14:44;;;;;;;6.07;4.68;;;;;;;11.23;100.00;93333.06;2133867;27;20428;-76
2022/08/01 04:15:47;;;;;;;5.28;4.40;;;;;;;11.19;100.00;93327.03;2134008;27;20405;-75
2022/08/01 04:16:48;;;;;;;5.32;4.82;;;;;;;11.21;100.00;93327.41;2133323;27;20046;-74
2022/08/01 04:17:49;;;;;;;5.00;4.32;;;;;;;11.18;100.00;93330.91;2126692;27;20425;-73
2022/08/01 04:18:50;;;;;;;5.85;4.70;;;;;;;11.20;100.00;93328.56;2125011;27;20099;-74
2022/08/01 04:19:51;;;;;;;7.57;4.38;;;;;;;11.18;100.00;93327.47;2134186;27;20038;-75
2022/08/01 04:20:51;;;;;;;5.80;4.40;;;;;;;11.20;100.00;93328.56;2136715;27;20038;-74
2022/08/01 04:21:52;;;;;;;17.85;4.82;;;;;;;11.06;100.00;93337.66;2135266;27;20142;-75
2022/08/01 04:22:53;;;;;;;5.18;4.68;;;;;;;11.06;100.00;93329.63;2134025;27;20087;-74
2022/08/01 04:24:17;;;;;;;6.15;4.40;;;;;;;11.16;100.00;93337.84;2131983;27;20471;-74
2022/08/01 04:25:39;;;;;;;5.82;4.38;;;;;;;11.22;100.00;93333.50;2132821;27;20087;-75
2022/08/01 04:26:44;;;;;;;5.45;4.45;;;;;;;11.17;100.00;93332.06;2134106;27;20109;-74
2022/08/01 04:27:48;;;;;;;7.63;4.57;;;;;;;11.13;100.00;93327.97;2134190;27;20038;-74
2022/08/01 04:28:51;;;;;;;5.13;4.55;;;;;;;11.19;100.00;93335.06;2125160;27;20080;-74
2022/08/01 04:29:56;;;;;;;7.18;4.60;;;;;;;11.21;100.00;93332.00;2124568;27;20030;-75
2022/08/01 04:30:59;;;;;;;6.35;4.60;;;;;;;11.24;100.00;93325.81;2125830;27;20066;-75
2022/08/01 04:32:02;;;;;;;4.72;4.32;;;;;;;11.28;100.00;93327.25;2124597;27;20179;-76
2022/08/01 04:33:06;;;;;;;6.20;4.50;;;;;;;11.33;100.00;93326.78;2125142;27;20035;-76
2022/08/01 04:34:11;;;;;;;8.63;4.53;;;;;;;11.35;100.00;93331.69;2126518;27;20030;-75
2022/08/01 04:35:16;;;;;;;5.18;4.40;;;;;;;11.33;100.00;93332.13;2133260;27;20034;-75
2022/08/01 04:36:22;;;;;;;7.97;4.38;;;;;;;11.28;100.00;93334.50;2132643;27;20100;-75
2022/08/01 04:37:25;;;;;;;6.05;4.75;;;;;;;11.23;100.00;93332.31;2118299;27;20038;-75
2022/08/01 04:38:28;;;;;;;7.38;4.47;;;;;;;11.31;100.00;93333.69;2121374;27;20023;-76
2022/08/01 04:39:33;;;;;;;7.05;5.03;;;;;;;11.30;100.00;93334.88;2131384;27;20023;-76
2022/08/01 04:40:36;;;;;;;5.10;4.70;;;;;;;11.36;100.00;93335.88;2130722;27;20022;-76
2022/08/01 04:41:38;;;;;;;6.90;5.07;;;;;;;11.33;100.00;93334.03;2128093;27;20026;-74
2022/08/01 04:42:40;;;;;;;7.50;5.22;;;;;;;11.40;100.00;93333.13;2130518;27;20118;-76
2022/08/01 04:43:42;;;;;;;6.93;4.47;;;;;;;11.39;100.00;93335.06;2130829;27;20089;-74
2022/08/01 04:44:43;;;;;;;5.63;5.10;;;;;;;11.44;100.00;93339.16;2132361;27;20083;-76
2022/08/01 04:45:46;;;;;;;6.38;4.88;;;;;;;11.52;100.00;93340.50;2130771;27;20112;-75
2022/08/01 04:46:48;;;;;;;5.28;4.47;;;;;;;11.51;100.00;93341.69;2129882;27;20049;-75
2022/08/01 04:47:50;;;;;;;5.63;4.72;;;;;;;11.54;100.00;93343.53;2131992;27;20030;-77
2022/08/01 04:48:51;;;;;;;8.35;4.78;;;;;;;11.51;100.00;93345.13;2129399;27;20026;-76
2022/08/01 04:49:53;;;;;;;7.20;4.35;;;;;;;11.57;100.00;93340.78;2131118;27;20057;-75
2022/08/01 04:50:54;;;;;;;7.03;5.15;;;;;;;11.57;100.00;93335.41;2132426;27;20022;-77
2022/08/01 04:51:57;;;;;;;5.57;5.03;;;;;;;11.62;100.00;93344.13;2132583;27;20026;-74
2022/08/01 04:52:58;;;;;;;7.65;5.07;;;;;;;11.65;100.00;93341.38;2132028;27;20038;-75
2022/08/01 04:54:00;;;;;;;6.00;4.70;;;;;;;11.68;100.00;93343.22;2122223;27;20397;-74
2022/08/01 04:55:02;;;;;;;7.28;5.47;;;;;;;11.67;100.00;93338.28;2121210;27;20027;-75
2022/08/01 04:56:03;;;;;;;7.32;4.80;;;;;;;11.70;100.00;93335.50;2132424;27;20030;-74
2022/08/01 04:57:05;;;;;;;8.82;5.50;;;;;;;11.59;100.00;93340.38;2123842;27;20118;-73
2022/08/01 04:58:07;;;;;;;7.22;5.00;;;;;;;11.68;100.00;93337.88;2122595;27;20031;-76
2022/08/01 05:00:28;;;;;;;7.38;5.10;;;;;;;11.83;100.00;93333.72;2131577;27;20521;-74
2022/08/01 05:01:30;;;;;;;6.25;5.32;;;;;;;11.89;100.00;93341.25;2131304;27;20027;-75
2022/08/01 05:02:32;;;;;;;9.38;5.60;;;;;;;11.93;100.00;93334.63;2123690;27;20042;-75
2022/08/01 05:03:33;;;;;;;6.28;4.95;;;;;;;11.95;100.00;93342.28;2122381;27;20121;-75